Time;durP1;ratioP1;P1;durP2;ratioP2;P2;SDS_P1;SDS_P2;PMS_P1;PMS_P2;Temp;Humidity;BMP_temperature;BMP_pressure;BME280_temperature;BME280_humidity;BME280_pressure;Samples;Min_cycle;Max_cycle;Signal;HPM_P1;HPM_P2
2023/02/11 00:00:06;;;;;;;24.33;5.07;;;;;;;11.06;64.40;103505.00;5064691;28;20025;-42
2023/02/11 00:02:32;;;;;;;23.90;4.30;;;;;;;10.64;65.83;103516.63;5060167;28;20044;-44
2023/02/11 00:04:57;;;;;;;20.52;4.63;;;;;;;10.99;64.87;103509.91;5064942;28;20102;-42
2023/02/11 00:07:23;;;;;;;20.30;4.40;;;;;;;11.08;65.27;103508.59;5066446;28;20028;-44
2023/02/11 00:09:48;;;;;;;19.95;4.35;;;;;;;11.01;65.48;103504.78;5069101;22;20055;-46
2023/02/11 00:12:14;;;;;;;29.48;4.80;;;;;;;11.08;64.74;103503.38;5066318;28;20032;-46
2023/02/11 00:14:40;;;;;;;27.92;4.38;;;;;;;11.27;64.35;103504.44;5063767;28;20067;-48
2023/02/11 00:17:05;;;;;;;19.00;4.13;;;;;;;10.93;64.81;103501.75;5067913;28;20090;-44
2023/02/11 00:19:31;;;;;;;15.23;3.95;;;;;;;11.01;65.21;103494.31;5062782;28;20061;-46
2023/02/11 00:21:56;;;;;;;21.10;4.45;;;;;;;10.95;65.49;103494.00;5068814;28;20475;-49
2023/02/11 00:24:21;;;;;;;21.88;4.28;;;;;;;10.76;66.24;103501.66;5069063;28;20066;-44
2023/02/11 00:26:46;;;;;;;20.17;4.68;;;;;;;10.87;65.68;103498.81;5066262;28;20024;-46
2023/02/11 00:29:12;;;;;;;22.63;4.65;;;;;;;11.22;64.85;103492.81;5069041;28;20040;-43
2023/02/11 00:31:37;;;;;;;26.50;4.80;;;;;;;10.99;65.38;103495.94;5064927;28;20032;-47
2023/02/11 00:34:02;;;;;;;19.55;4.18;;;;;;;11.10;64.89;103479.13;5068800;28;20028;-45
2023/02/11 00:36:29;;;;;;;21.15;4.18;;;;;;;11.02;65.56;103476.94;5064130;28;20021;-44
2023/02/11 00:38:55;;;;;;;23.58;4.50;;;;;;;10.99;65.40;103481.19;5068355;28;20540;-45
2023/02/11 00:41:22;;;;;;;24.55;4.72;;;;;;;10.89;65.57;103481.53;5067746;28;20059;-44
2023/02/11 00:43:47;;;;;;;16.35;4.03;;;;;;;11.04;65.33;103478.81;5063132;28;20116;-44
2023/02/11 00:46:13;;;;;;;18.88;4.63;;;;;;;10.81;65.70;103485.41;5068754;28;20082;-47
2023/02/11 00:48:38;;;;;;;24.73;4.68;;;;;;;10.88;64.95;103487.56;5063815;28;20056;-44
2023/02/11 00:51:04;;;;;;;20.52;4.50;;;;;;;10.91;65.44;103490.34;5066554;28;20054;-48
2023/02/11 00:53:30;;;;;;;21.75;4.63;;;;;;;10.78;65.39;103485.28;5063926;28;20182;-44
2023/02/11 00:55:55;;;;;;;20.60;4.13;;;;;;;10.83;65.08;103480.28;5068821;28;20036;-43
2023/02/11 00:58:21;;;;;;;22.35;4.75;;;;;;;10.76;65.67;103478.16;5068406;28;20406;-44
2023/02/11 01:00:47;;;;;;;21.30;4.78;;;;;;;10.95;64.99;103474.03;5064711;28;20387;-44
2023/02/11 01:03:12;;;;;;;21.40;4.95;;;;;;;10.85;65.40;103481.28;5067963;28;20024;-46
2023/02/11 01:05:38;;;;;;;16.95;4.97;;;;;;;11.28;64.09;103487.06;5063575;28;20128;-43
2023/02/11 01:08:03;;;;;;;19.85;5.38;;;;;;;10.82;65.00;103486.31;5068657;28;20047;-44
2023/02/11 01:10:28;;;;;;;17.90;4.88;;;;;;;11.17;64.17;103488.19;5062878;28;20907;-44
2023/02/11 01:12:54;;;;;;;15.02;4.78;;;;;;;11.15;64.48;103488.13;5067204;28;20402;-44
2023/02/11 01:15:20;;;;;;;23.17;5.50;;;;;;;11.05;64.72;103478.00;5067332;28;20029;-44
2023/02/11 01:17:45;;;;;;;18.13;5.40;;;;;;;10.96;64.73;103472.31;5063366;28;20497;-50
2023/02/11 01:20:18;;;;;;;21.45;5.47;;;;;;;11.34;63.85;103469.97;5067383;28;20047;-43
2023/02/11 01:22:43;;;;;;;19.15;5.30;;;;;;;11.01;64.68;103472.53;5062828;28;20032;-43
2023/02/11 01:25:09;;;;;;;19.27;5.70;;;;;;;10.89;64.92;103481.53;5066396;28;20090;-45
2023/02/11 01:27:35;;;;;;;18.73;6.03;;;;;;;10.81;65.70;103477.59;5063791;28;20036;-48
2023/02/11 01:30:01;;;;;;;16.98;5.65;;;;;;;10.68;66.08;103484.66;5066726;28;20036;-43
2023/02/11 01:32:26;;;;;;;18.83;6.00;;;;;;;10.73;65.96;103480.63;5061044;28;20093;-45
2023/02/11 01:34:52;;;;;;;31.90;6.35;;;;;;;10.96;65.34;103468.00;5031094;28;20043;-44
2023/02/11 01:37:17;;;;;;;21.65;6.05;;;;;;;10.57;66.40;103461.50;5065850;28;20032;-45
2023/02/11 01:39:42;;;;;;;18.88;5.78;;;;;;;11.09;64.81;103458.19;5060748;28;20037;-44
2023/02/11 01:42:15;;;;;;;20.67;5.95;;;;;;;10.77;66.10;103460.00;5063597;28;20048;-43
2023/02/11 01:44:41;;;;;;;16.98;5.40;;;;;;;10.76;65.94;103458.19;5059787;28;20453;-44
2023/02/11 01:47:06;;;;;;;21.73;6.20;;;;;;;10.48;66.70;103462.75;5064048;28;20067;-47
2023/02/11 01:49:35;;;;;;;20.67;5.88;;;;;;;10.71;66.32;103462.28;5059967;28;20075;-47
2023/02/11 01:52:18;;;;;;;18.95;6.30;;;;;;;10.26;67.82;103468.47;5063625;28;20131;-46
2023/02/11 01:57:40;;;;;;;20.02;6.22;;;;;;;10.27;68.42;103465.03;5059888;28;20106;-46
2023/02/11 02:00:26;;;;;;;17.08;6.03;;;;;;;10.55;66.91;103463.13;5062655;28;20041;-45
2023/02/11 02:03:03;;;;;;;19.95;6.28;;;;;;;10.71;66.87;103462.28;5043569;28;20045;-44
2023/02/11 02:05:54;;;;;;;19.27;6.30;;;;;;;10.50;67.57;103462.00;5059782;28;20037;-43
2023/02/11 02:08:35;;;;;;;19.65;6.63;;;;;;;10.32;68.07;103458.38;5064828;28;20059;-44
2023/02/11 02:11:02;;;;;;;20.70;6.65;;;;;;;10.51;67.12;103453.34;5060775;28;20123;-46
2023/02/11 02:13:29;;;;;;;19.65;6.53;;;;;;;10.73;67.04;103452.81;5060978;28;20491;-45
2023/02/11 02:16:00;;;;;;;20.30;6.88;;;;;;;10.29;68.59;103460.81;5062918;28;20028;-45
2023/02/11 02:18:52;;;;;;;19.13;6.80;;;;;;;10.24;69.02;103450.97;5063659;28;20469;-44
2023/02/11 02:21:55;;;;;;;19.85;7.10;;;;;;;10.36;68.07;103447.31;5059052;28;20104;-44
2023/02/11 02:24:42;;;;;;;24.92;7.32;;;;;;;10.58;67.74;103455.50;5059828;28;20041;-48
2023/02/11 02:27:26;;;;;;;22.95;7.15;;;;;;;10.36;68.77;103462.97;5059586;28;20133;-44
2023/02/11 02:30:23;;;;;;;19.90;7.30;;;;;;;10.44;67.85;103460.75;5059114;28;20059;-47
2023/02/11 02:32:54;;;;;;;22.52;7.00;;;;;;;10.14;69.36;103468.63;5038267;28;20036;-44
2023/02/11 02:35:45;;;;;;;27.38;8.10;;;;;;;10.33;68.94;103474.91;5063323;28;20035;-47
2023/02/11 02:38:14;;;;;;;23.75;7.03;;;;;;;10.44;68.12;103472.09;5059696;28;20083;-48
2023/02/11 02:40:48;;;;;;;22.70;7.50;;;;;;;10.47;68.55;103461.84;5059473;28;20036;-43
2023/02/11 02:43:15;;;;;;;23.35;7.45;;;;;;;10.48;68.22;103465.34;5063395;28;20552;-45
2023/02/11 02:45:41;;;;;;;23.50;8.30;;;;;;;10.47;68.66;103468.75;5060439;28;20037;-44
2023/02/11 02:48:06;;;;;;;24.33;7.70;;;;;;;10.62;67.78;103471.28;5064578;28;20044;-46
2023/02/11 02:50:35;;;;;;;20.25;8.07;;;;;;;10.62;67.56;103473.91;5060699;28;20115;-45
2023/02/11 02:53:31;;;;;;;24.33;7.93;;;;;;;10.56;67.88;103466.63;5065624;28;20054;-45
2023/02/11 02:56:10;;;;;;;26.73;8.05;;;;;;;10.37;69.00;103467.34;5062638;28;20115;-48
2023/02/11 02:59:03;;;;;;;20.88;8.13;;;;;;;10.08;69.71;103465.69;5061840;28;20475;-47
2023/02/11 03:01:47;;;;;;;23.92;8.18;;;;;;;10.16;69.32;103467.06;5060011;28;20017;-44
2023/02/11 03:04:19;;;;;;;24.02;8.43;;;;;;;10.02;70.06;103461.84;5065503;28;20036;-45
2023/02/11 03:06:59;;;;;;;26.25;8.45;;;;;;;9.92;70.77;103459.53;5063594;28;20037;-43
2023/02/11 03:09:34;;;;;;;26.10;8.63;;;;;;;10.16;70.28;103459.25;5065332;28;20035;-42
2023/02/11 03:12:01;;;;;;;22.67;8.20;;;;;;;10.38;68.86;103458.72;5069039;28;20044;-44
2023/02/11 03:14:28;;;;;;;26.30;8.50;;;;;;;10.04;69.72;103458.50;5066110;28;20051;-45
2023/02/11 03:16:58;;;;;;;21.95;8.57;;;;;;;10.00;70.43;103463.47;5069944;28;20101;-43
2023/02/11 03:19:29;;;;;;;25.60;8.43;;;;;;;10.25;69.38;103464.06;5049053;28;20037;-44
2023/02/11 03:21:55;;;;;;;23.65;8.90;;;;;;;9.97;70.48;103460.69;5044532;28;20506;-45
2023/02/11 03:24:35;;;;;;;25.40;9.52;;;;;;;9.80;71.18;103461.44;5067952;28;20090;-48
2023/02/11 03:27:26;;;;;;;29.08;9.48;;;;;;;10.01;70.86;103462.63;5065117;28;20039;-45
2023/02/11 03:29:54;;;;;;;23.58;8.68;;;;;;;9.95;70.70;103472.72;5064440;28;20029;-48
2023/02/11 03:32:30;;;;;;;28.20;9.45;;;;;;;10.00;70.10;103460.88;5068185;28;20028;-46
2023/02/11 03:35:14;;;;;;;24.02;9.20;;;;;;;10.14;70.09;103459.91;5065033;28;20086;-45
2023/02/11 03:37:51;;;;;;;25.27;8.93;;;;;;;10.03;70.12;103458.41;5063571;28;20050;-47
2023/02/11 03:40:21;;;;;;;26.30;8.98;;;;;;;10.12;69.78;103449.41;5067799;28;20033;-47
2023/02/11 03:42:53;;;;;;;25.95;8.52;;;;;;;10.18;69.41;103440.19;5063618;28;20272;-44
2023/02/11 03:45:22;;;;;;;27.73;9.00;;;;;;;9.90;70.92;103435.97;5065731;28;20025;-44
2023/02/11 03:47:53;;;;;;;29.55;9.60;;;;;;;9.72;71.20;103422.81;5062649;28;20090;-48
2023/02/11 03:50:19;;;;;;;27.63;9.85;;;;;;;9.98;70.45;103426.00;5065813;28;20032;-41
2023/02/11 03:52:47;;;;;;;30.58;9.88;;;;;;;9.87;70.98;103432.31;5062243;28;20040;-44
2023/02/11 03:55:17;;;;;;;24.27;9.30;;;;;;;10.03;70.50;103440.19;5066622;28;20082;-43
2023/02/11 03:57:43;;;;;;;25.80;10.45;;;;;;;9.61;72.61;103446.44;5062687;28;20463;-43
2023/02/11 04:00:10;;;;;;;26.05;10.10;;;;;;;9.94;71.76;103456.19;5067043;28;20105;-44
2023/02/11 04:02:37;;;;;;;25.48;10.30;;;;;;;10.22;70.93;103447.34;5062669;28;20025;-45
2023/02/11 04:05:06;;;;;;;24.30;9.55;;;;;;;10.17;70.74;103444.50;5067758;28;20037;-44
2023/02/11 04:07:32;;;;;;;27.33;10.25;;;;;;;10.17;70.77;103441.91;5063514;28;20032;-44
2023/02/11 04:09:57;;;;;;;26.48;10.13;;;;;;;10.02;71.37;103440.97;5065461;28;20509;-44
2023/02/11 04:12:23;;;;;;;27.40;10.05;;;;;;;10.31;69.94;103440.94;5065314;28;20506;-43
2023/02/11 04:14:48;;;;;;;23.77;9.68;;;;;;;10.16;70.42;103440.06;5061660;28;20409;-45
2023/02/11 04:17:14;;;;;;;29.85;9.85;;;;;;;10.06;70.19;103440.38;5065227;28;20037;-50
2023/02/11 04:19:39;;;;;;;24.50;9.93;;;;;;;10.09;70.27;103438.81;5061552;28;20036;-45
2023/02/11 04:22:05;;;;;;;26.40;9.48;;;;;;;9.98;70.52;103445.13;5064808;28;20042;-44
2023/02/11 04:24:30;;;;;;;27.60;10.30;;;;;;;10.09;70.62;103440.53;5061896;28;20048;-46
2023/02/11 04:26:55;;;;;;;28.95;10.38;;;;;;;9.97;71.17;103445.03;5065753;28;20035;-43
2023/02/11 04:29:20;;;;;;;28.42;10.23;;;;;;;9.90;71.60;103437.69;5066151;28;20064;-43
2023/02/11 04:31:46;;;;;;;25.65;9.80;;;;;;;10.01;70.81;103444.41;5061435;28;20115;-45
2023/02/11 04:34:12;;;;;;;25.38;10.82;;;;;;;9.99;71.56;103443.44;5066981;28;20521;-45
2023/02/11 04:36:37;;;;;;;32.30;10.57;;;;;;;10.22;71.47;103431.72;5061989;28;20566;-44
2023/02/11 04:39:03;;;;;;;32.33;10.95;;;;;;;10.13;71.00;103434.66;5065430;28;20462;-43
2023/02/11 04:41:28;;;;;;;32.40;11.60;;;;;;;9.99;71.91;103439.13;5060708;28;20035;-45
2023/02/11 04:43:53;;;;;;;33.47;11.05;;;;;;;9.99;71.94;103440.81;5065542;28;20384;-46
2023/02/11 04:46:19;;;;;;;26.10;10.93;;;;;;;10.00;72.23;103438.28;5065292;28;20029;-44
2023/02/11 04:48:44;;;;;;;29.73;11.70;;;;;;;9.92;72.41;103443.88;5061948;28;20037;-47
2023/02/11 04:51:10;;;;;;;28.50;11.32;;;;;;;9.93;72.55;103435.28;5047507;28;20134;-45
2023/02/11 04:53:35;;;;;;;32.75;11.95;;;;;;;9.91;72.87;103434.28;5063064;28;20032;-42
2023/02/11 04:56:00;;;;;;;31.27;10.95;;;;;;;10.09;72.38;103432.69;5067064;28;20036;-47
2023/02/11 04:58:26;;;;;;;32.08;11.68;;;;;;;10.19;72.12;103432.44;5064743;28;20029;-45
2023/02/11 05:00:51;;;;;;;32.17;11.82;;;;;;;10.22;71.95;103442.13;5066091;28;20051;-46
2023/02/11 05:03:16;;;;;;;30.58;11.82;;;;;;;10.23;71.51;103437.03;5066846;28;20044;-47
2023/02/11 05:05:42;;;;;;;31.75;11.20;;;;;;;10.26;72.51;103426.75;5058809;28;20040;-43
2023/02/11 05:08:08;;;;;;;33.03;12.15;;;;;;;10.11;72.70;103429.38;5064974;28;20033;-46
2023/02/11 05:10:34;;;;;;;30.23;12.05;;;;;;;10.33;72.68;103428.88;5059729;28;20055;-44
2023/02/11 05:13:00;;;;;;;28.08;11.82;;;;;;;10.21;72.07;103423.00;5064092;28;20471;-43
2023/02/11 05:15:26;;;;;;;33.20;11.55;;;;;;;10.24;72.50;103430.09;5060165;28;20029;-46
2023/02/11 05:17:51;;;;;;;30.58;12.05;;;;;;;10.24;72.54;103432.72;5064307;28;20040;-47
2023/02/11 05:20:16;;;;;;;31.95;12.75;;;;;;;10.05;73.53;103439.47;5063977;28;20035;-45
2023/02/11 05:22:42;;;;;;;32.33;12.57;;;;;;;10.31;72.23;103435.72;5042465;28;20055;-43
2023/02/11 05:25:07;;;;;;;34.65;12.50;;;;;;;10.08;72.61;103446.53;5063892;28;20406;-46
2023/02/11 05:27:33;;;;;;;31.15;12.40;;;;;;;10.44;72.09;103445.09;5060131;28;20032;-45
2023/02/11 05:29:58;;;;;;;30.48;12.07;;;;;;;10.50;71.76;103455.88;5063104;28;20407;-47
2023/02/11 05:32:23;;;;;;;32.80;11.95;;;;;;;10.58;71.46;103462.41;5063423;28;20536;-47
2023/02/11 05:34:49;;;;;;;31.85;12.45;;;;;;;10.57;71.33;103468.44;5042527;28;20070;-47
2023/02/11 05:37:14;;;;;;;32.88;12.15;;;;;;;10.59;70.74;103464.22;5064056;28;20035;-45
2023/02/11 05:39:39;;;;;;;35.97;12.88;;;;;;;10.26;72.68;103468.47;5060475;28;20036;-45
2023/02/11 05:42:05;;;;;;;31.90;12.60;;;;;;;10.38;72.20;103476.06;5062965;28;20047;-44
2023/02/11 05:44:30;;;;;;;35.55;12.70;;;;;;;10.41;71.94;103477.16;5060176;28;20040;-43
2023/02/11 05:46:56;;;;;;;31.75;12.82;;;;;;;10.49;71.76;103464.53;5063641;28;20032;-44
2023/02/11 05:49:21;;;;;;;32.67;13.60;;;;;;;10.44;71.89;103476.41;5063957;28;20036;-47
2023/02/11 05:51:46;;;;;;;40.38;13.63;;;;;;;10.36;72.85;103472.50;5059017;28;20415;-44
2023/02/11 05:54:12;;;;;;;30.00;12.88;;;;;;;10.52;72.58;103469.91;5063825;28;20033;-45
2023/02/11 05:56:37;;;;;;;35.17;14.00;;;;;;;10.30;73.37;103466.94;5060261;28;20032;-47
2023/02/11 05:59:02;;;;;;;34.88;13.80;;;;;;;10.52;72.48;103460.38;5063515;28;20491;-44
2023/02/11 06:01:28;;;;;;;33.15;13.88;;;;;;;10.21;73.66;103462.09;5061939;28;20033;-48
2023/02/11 06:03:53;;;;;;;35.53;14.05;;;;;;;10.45;73.48;103463.47;5061349;28;20036;-44
2023/02/11 06:06:19;;;;;;;36.90;14.55;;;;;;;10.32;73.68;103471.41;5060654;28;20024;-45
2023/02/11 06:08:44;;;;;;;38.95;14.20;;;;;;;10.47;73.40;103458.34;5041829;28;20098;-41
2023/02/11 06:11:10;;;;;;;38.58;15.35;;;;;;;10.20;74.69;103462.00;5041901;22;20038;-41
2023/02/11 06:13:35;;;;;;;40.90;14.65;;;;;;;10.41;73.63;103458.91;4979826;28;20041;-41
2023/02/11 06:16:02;;;;;;;36.08;15.02;;;;;;;10.64;72.81;103456.63;4984726;28;20035;-44
2023/02/11 06:18:28;;;;;;;36.20;14.90;;;;;;;10.44;72.95;103461.66;4977248;28;20129;-41
2023/02/11 06:20:54;;;;;;;36.35;15.35;;;;;;;10.60;73.48;103455.59;4981379;28;20080;-40
2023/02/11 06:23:19;;;;;;;41.28;15.70;;;;;;;10.36;74.39;103465.56;4979639;28;20050;-44
2023/02/11 06:25:45;;;;;;;40.00;15.95;;;;;;;10.45;74.04;103462.56;4977194;28;20154;-39
2023/02/11 06:28:10;;;;;;;36.75;16.13;;;;;;;10.59;73.59;103459.00;4980258;28;20083;-42
2023/02/11 06:30:36;;;;;;;43.20;16.73;;;;;;;10.30;74.28;103457.41;4975691;28;20133;-41
2023/02/11 06:33:02;;;;;;;42.55;16.48;;;;;;;10.38;74.19;103455.19;4980351;28;20405;-41
2023/02/11 06:35:27;;;;;;;42.78;16.38;;;;;;;10.34;74.24;103461.06;4976765;28;20034;-42
2023/02/11 06:37:53;;;;;;;41.85;16.75;;;;;;;10.34;74.55;103469.78;4980202;28;20087;-43
2023/02/11 06:40:19;;;;;;;45.70;16.63;;;;;;;10.47;74.23;103468.75;4979630;28;20037;-40
2023/02/11 06:42:45;;;;;;;40.67;16.02;;;;;;;10.58;73.01;103465.03;4976337;28;20085;-40
2023/02/11 06:45:12;;;;;;;43.03;17.02;;;;;;;10.34;73.76;103471.50;4980033;28;20062;-43
2023/02/11 06:47:38;;;;;;;41.72;16.98;;;;;;;10.23;74.92;103478.72;4976698;28;20089;-44
2023/02/11 06:50:06;;;;;;;39.67;15.73;;;;;;;10.48;73.80;103466.25;4979995;28;20500;-41
2023/02/11 06:52:32;;;;;;;42.55;16.80;;;;;;;10.29;74.09;103467.75;4975566;28;20031;-40
2023/02/11 06:54:57;;;;;;;45.38;16.67;;;;;;;10.56;73.39;103471.84;4979152;28;20045;-42
2023/02/11 06:57:23;;;;;;;37.65;16.02;;;;;;;10.56;73.44;103472.75;4981460;28;20122;-41
2023/02/11 06:59:48;;;;;;;43.60;16.63;;;;;;;10.56;73.37;103466.63;4976619;28;20054;-40
2023/02/11 07:02:13;;;;;;;43.53;15.95;;;;;;;10.57;73.75;103471.94;4979411;28;20040;-39
2023/02/11 07:04:39;;;;;;;45.30;16.42;;;;;;;10.47;74.41;103473.97;4976188;28;20034;-41
2023/02/11 07:07:05;;;;;;;43.05;15.95;;;;;;;10.34;74.85;103477.63;4978257;28;20117;-41
2023/02/11 07:09:30;;;;;;;42.72;16.42;;;;;;;10.38;75.43;103476.06;4977003;28;20041;-40
2023/02/11 07:11:56;;;;;;;40.13;16.48;;;;;;;10.51;74.49;103481.16;4980961;28;20408;-43
2023/02/11 07:14:21;;;;;;;40.15;15.65;;;;;;;10.84;73.54;103484.69;4981665;28;20035;-41
2023/02/11 07:16:46;;;;;;;40.00;15.82;;;;;;;10.73;73.61;103486.75;4978521;28;20088;-40
2023/02/11 07:19:12;;;;;;;40.10;15.75;;;;;;;10.56;74.29;103498.84;4984912;28;20409;-40
2023/02/11 07:21:37;;;;;;;36.45;15.35;;;;;;;10.69;73.44;103497.81;4979374;28;20590;-40
2023/02/11 07:24:06;;;;;;;37.08;15.20;;;;;;;10.71;73.68;103496.19;4982015;28;20025;-42
2023/02/11 07:26:32;;;;;;;36.53;15.23;;;;;;;10.75;73.27;103495.53;4977082;28;20034;-41
2023/02/11 07:28:57;;;;;;;38.50;15.35;;;;;;;10.74;73.80;103496.34;4980951;28;20031;-41
2023/02/11 07:31:26;;;;;;;37.10;15.50;;;;;;;10.87;73.32;103498.81;4980307;28;20446;-41
2023/02/11 07:33:54;;;;;;;35.25;14.90;;;;;;;10.82;73.37;103488.94;4976841;28;20033;-45
2023/02/11 07:36:19;;;;;;;35.10;15.80;;;;;;;10.82;73.10;103502.88;4983440;28;20026;-42
2023/02/11 07:38:46;;;;;;;42.70;15.98;;;;;;;10.74;73.77;103509.38;4978959;28;20054;-44
2023/02/11 07:41:14;;;;;;;37.50;14.55;;;;;;;11.13;72.17;103504.53;4979696;28;20096;-41
2023/02/11 07:43:40;;;;;;;33.20;14.35;;;;;;;11.18;72.72;103508.25;4976360;28;20043;-43
2023/02/11 07:46:12;;;;;;;38.83;14.70;;;;;;;11.06;72.56;103505.91;4979932;28;20104;-43
2023/02/11 07:48:37;;;;;;;33.75;14.70;;;;;;;11.08;72.65;103508.59;4976271;28;20031;-38
2023/02/11 07:51:10;;;;;;;34.78;15.10;;;;;;;11.06;73.18;103507.63;4979039;28;20049;-41
2023/02/11 07:53:36;;;;;;;36.20;15.57;;;;;;;10.84;73.26;103508.19;4979427;28;20473;-41
2023/02/11 07:56:03;;;;;;;31.15;14.82;;;;;;;11.00;73.18;103500.34;4982879;28;20117;-42
2023/02/11 07:58:28;;;;;;;31.33;13.93;;;;;;;11.04;72.61;103507.53;4979291;28;20346;-42
2023/02/11 08:00:53;;;;;;;34.72;15.35;;;;;;;10.98;73.37;103510.72;4982202;28;20491;-41
2023/02/11 08:03:19;;;;;;;30.35;14.70;;;;;;;11.09;73.12;103503.47;4983238;28;20070;-40
2023/02/11 08:05:44;;;;;;;33.95;14.55;;;;;;;11.29;72.36;103508.00;4978867;28;20419;-42
2023/02/11 08:08:09;;;;;;;29.85;13.88;;;;;;;11.26;72.49;103514.78;4982679;28;20488;-42
2023/02/11 08:10:35;;;;;;;32.15;14.55;;;;;;;11.26;72.18;103513.09;4977887;28;20042;-44
2023/02/11 08:13:01;;;;;;;27.98;13.82;;;;;;;11.47;71.53;103510.66;4982476;28;20326;-40
2023/02/11 08:15:26;;;;;;;31.58;13.98;;;;;;;11.29;72.99;103515.84;4979172;28;20126;-40
2023/02/11 08:17:51;;;;;;;30.75;14.07;;;;;;;11.27;72.09;103514.88;4982667;28;20084;-43
2023/02/11 08:20:17;;;;;;;31.45;14.73;;;;;;;11.04;72.80;103509.28;4982024;28;20413;-38
2023/02/11 08:22:43;;;;;;;31.98;14.18;;;;;;;11.31;72.11;103514.22;4978001;28;20042;-41
2023/02/11 08:25:08;;;;;;;30.80;13.57;;;;;;;11.22;72.89;103508.50;4982137;28;20031;-41
2023/02/11 08:27:33;;;;;;;28.13;13.77;;;;;;;11.62;71.57;103518.41;4977936;28;20066;-41
2023/02/11 08:29:59;;;;;;;30.20;13.43;;;;;;;11.47;71.97;103523.72;4981368;28;20058;-40
2023/02/11 08:32:25;;;;;;;28.83;13.68;;;;;;;11.67;71.14;103532.59;4977691;28;20515;-40
2023/02/11 08:34:51;;;;;;;27.80;13.07;;;;;;;11.38;71.74;103537.22;4982062;28;20412;-43
2023/02/11 08:37:17;;;;;;;28.15;13.23;;;;;;;11.65;71.06;103542.06;4965532;28;20270;-43
2023/02/11 08:39:43;;;;;;;26.52;12.98;;;;;;;11.58;71.72;103545.22;4978534;28;20058;-42
2023/02/11 08:42:08;;;;;;;25.02;12.60;;;;;;;11.75;70.81;103537.44;4963745;28;20076;-40
2023/02/11 08:44:34;;;;;;;26.48;12.07;;;;;;;11.59;70.98;103547.88;4960762;28;20588;-40
2023/02/11 08:46:59;;;;;;;24.05;11.95;;;;;;;11.74;70.92;103546.09;4982103;28;20041;-42
2023/02/11 08:49:24;;;;;;;24.75;12.48;;;;;;;11.64;70.68;103563.81;4979348;28;20219;-41
2023/02/11 08:51:50;;;;;;;23.30;12.15;;;;;;;11.76;70.46;103564.50;4980730;28;20110;-42
2023/02/11 08:54:16;;;;;;;23.15;12.00;;;;;;;11.70;70.59;103561.53;4981914;28;20056;-40
2023/02/11 08:56:41;;;;;;;25.83;12.27;;;;;;;11.61;70.87;103564.53;4978076;28;20031;-42
2023/02/11 08:59:08;;;;;;;22.63;11.68;;;;;;;11.77;70.89;103554.09;4981751;28;20253;-40
2023/02/11 09:01:33;;;;;;;23.65;12.07;;;;;;;11.51;71.45;103562.28;4977323;28;20030;-40
2023/02/11 09:03:59;;;;;;;23.10;11.63;;;;;;;11.75;70.33;103570.53;4980776;28;20087;-42
2023/02/11 09:06:25;;;;;;;24.23;12.02;;;;;;;11.81;70.34;103567.31;4978480;28;20034;-41
2023/02/11 09:08:53;;;;;;;24.45;11.57;;;;;;;11.74;70.26;103561.78;4983587;28;20129;-41
2023/02/11 09:11:23;;;;;;;22.30;10.75;;;;;;;11.74;70.33;103555.66;4982714;28;20150;-41
2023/02/11 09:13:49;;;;;;;23.52;11.77;;;;;;;11.72;70.36;103552.91;4980942;28;20042;-40
2023/02/11 09:16:23;;;;;;;19.75;10.50;;;;;;;11.96;69.49;103557.63;4984688;28;20117;-40
2023/02/11 09:18:49;;;;;;;18.10;10.13;;;;;;;11.81;69.41;103560.38;4981591;28;20095;-40
2023/02/11 09:21:15;;;;;;;19.73;10.13;;;;;;;12.24;67.91;103567.75;4984969;28;20041;-43
2023/02/11 09:23:43;;;;;;;17.38;9.57;;;;;;;12.17;68.11;103566.56;4978973;28;20520;-41
2023/02/11 09:26:16;;;;;;;16.83;9.25;;;;;;;12.46;67.30;103563.66;4964038;28;20034;-41
2023/02/11 09:28:41;;;;;;;18.67;9.27;;;;;;;12.03;68.10;103568.47;4960362;28;20072;-49
2023/02/11 09:31:10;;;;;;;16.85;9.05;;;;;;;12.12;67.83;103566.34;4980752;28;20058;-41
2023/02/11 09:33:36;;;;;;;18.88;9.07;;;;;;;12.38;66.95;103572.81;4977902;28;20030;-45
2023/02/11 09:36:04;;;;;;;18.13;9.18;;;;;;;12.25;67.16;103572.19;4981607;28;20133;-42
2023/02/11 09:38:30;;;;;;;16.83;9.18;;;;;;;12.59;66.08;103575.59;4978789;28;20041;-43
2023/02/11 09:40:55;;;;;;;14.55;8.68;;;;;;;12.42;66.19;103573.91;4982503;28;20046;-40
2023/02/11 09:43:25;;;;;;;16.90;8.45;;;;;;;12.32;66.61;103575.16;4983723;28;20034;-41
2023/02/11 09:45:54;;;;;;;15.65;8.50;;;;;;;12.40;66.16;103572.91;4978989;28;20512;-41
2023/02/11 09:48:21;;;;;;;15.30;8.68;;;;;;;12.53;65.73;103583.16;4981956;28;20377;-41
2023/02/11 09:50:51;;;;;;;14.95;8.82;;;;;;;12.62;65.51;103582.72;4977341;28;20488;-43
2023/02/11 09:53:25;;;;;;;16.10;8.75;;;;;;;12.60;65.46;103591.38;4980818;28;20030;-42
2023/02/11 09:55:55;;;;;;;;;;;;;;;12.80;64.89;103586.22;4978358;28;20049;-42
2023/02/11 09:58:31;;;;;;;15.68;8.57;;;;;;;12.67;65.32;103589.97;4983357;28;19920;-44
2023/02/11 10:01:16;;;;;;;14.43;8.00;;;;;;;12.90;64.43;103583.19;4961688;28;20496;-41
2023/02/11 10:04:19;;;;;;;13.40;7.93;;;;;;;13.06;63.42;103583.06;4978132;28;20070;-40
2023/02/11 10:07:46;;;;;;;16.23;8.55;;;;;;;13.12;63.07;103585.06;4977131;28;20739;-40
2023/02/11 10:10:26;;;;;;;12.65;7.68;;;;;;;13.36;62.23;103588.84;4881603;28;20044;-41
2023/02/11 10:13:28;;;;;;;14.05;7.88;;;;;;;13.48;61.42;103592.00;4881805;28;20040;-43
2023/02/11 10:16:18;;;;;;;13.27;8.38;;;;;;;12.89;62.87;103603.22;4958438;28;20088;-40
2023/02/11 10:19:07;;;;;;;15.00;8.52;;;;;;;13.36;61.74;103604.56;4976687;28;20031;-43
2023/02/11 10:21:46;;;;;;;15.73;8.10;;;;;;;13.48;61.34;103612.09;4975699;28;20046;-41
2023/02/11 10:24:14;;;;;;;14.38;8.55;;;;;;;13.52;60.89;103617.53;4980559;28;20075;-40
2023/02/11 10:26:40;;;;;;;15.65;8.55;;;;;;;13.38;61.77;103618.63;4976783;28;20088;-40
2023/02/11 10:29:23;;;;;;;14.52;8.55;;;;;;;13.32;61.69;103629.72;4980466;28;20038;-41
2023/02/11 10:31:49;;;;;;;14.20;8.55;;;;;;;13.50;61.91;103628.78;4975900;28;20034;-40
2023/02/11 10:34:15;;;;;;;15.93;9.00;;;;;;;13.31;61.79;103634.91;4980169;28;20042;-39
2023/02/11 10:36:42;;;;;;;14.65;8.60;;;;;;;12.82;63.46;103647.38;4976041;28;20045;-40
2023/02/11 10:39:19;;;;;;;17.40;9.10;;;;;;;13.40;62.11;103632.72;4980426;28;20030;-43
2023/02/11 10:41:53;;;;;;;15.88;8.93;;;;;;;13.48;61.48;103633.94;4979592;28;20090;-40
2023/02/11 10:44:40;;;;;;;14.77;8.85;;;;;;;13.08;62.57;103631.19;4976821;28;20034;-40
2023/02/11 10:47:19;;;;;;;18.85;9.23;;;;;;;12.89;63.37;103639.88;4977208;28;20031;-41
2023/02/11 10:49:47;;;;;;;15.18;9.05;;;;;;;13.46;61.89;103645.19;4980141;28;20038;-43
2023/02/11 10:52:16;;;;;;;14.52;9.38;;;;;;;13.58;61.44;103641.41;4975847;28;20530;-45
2023/02/11 10:55:05;;;;;;;17.88;9.68;;;;;;;13.40;61.80;103641.47;4976393;28;20045;-42
2023/02/11 10:57:34;;;;;;;16.38;9.05;;;;;;;13.57;61.67;103644.84;4976349;28;20096;-40
2023/02/11 11:00:18;;;;;;;16.45;9.27;;;;;;;13.65;60.77;103647.81;4979819;28;20122;-40
2023/02/11 11:02:45;;;;;;;17.35;9.65;;;;;;;13.75;61.13;103658.78;4976102;28;20539;-41
2023/02/11 11:05:17;;;;;;;16.70;9.40;;;;;;;13.60;61.12;103665.94;4979931;28;20034;-40
2023/02/11 11:07:58;;;;;;;18.63;9.63;;;;;;;13.54;61.28;103664.78;4976299;28;20061;-41
2023/02/11 11:10:28;;;;;;;18.15;9.40;;;;;;;13.93;60.53;103660.41;4978848;28;20056;-41
2023/02/11 11:12:54;;;;;;;20.02;9.63;;;;;;;13.78;61.11;103666.75;4976295;28;20069;-41
2023/02/11 11:15:23;;;;;;;16.42;9.80;;;;;;;13.46;61.56;103669.69;4979463;28;20057;-41
2023/02/11 11:18:08;;;;;;;16.55;9.63;;;;;;;13.55;60.98;103662.22;4977347;28;20049;-40
2023/02/11 11:20:35;;;;;;;;;;;;;;;13.75;60.81;103673.63;4979634;28;20042;-41
2023/02/11 11:23:08;;;;;;;17.50;9.80;;;;;;;13.79;60.77;103665.94;4982592;28;19951;-44
2023/02/11 11:25:38;;;;;;;17.48;9.55;;;;;;;13.67;60.87;103672.34;4975834;28;20068;-40